sensor_id;sensor_type;location;lat;lon;timestamp;pressure;altitude;pressure_sealevel;temperature
74942;BMP280;63506;49.346;8.798;2024-03-25T00:00:17;99364.56;;;5.85
74942;BMP280;63506;49.346;8.798;2024-03-25T00:03:00;99387.72;;;5.90
74942;BMP280;63506;49.346;8.798;2024-03-25T00:05:41;99376.16;;;5.89
74942;BMP280;63506;49.346;8.798;2024-03-25T00:08:26;99379.13;;;5.84
74942;BMP280;63506;49.346;8.798;2024-03-25T00:11:08;99376.34;;;5.81
74942;BMP280;63506;49.346;8.798;2024-03-25T00:13:49;99382.25;;;5.86
74942;BMP280;63506;49.346;8.798;2024-03-25T00:16:31;99377.91;;;5.82
74942;BMP280;63506;49.346;8.798;2024-03-25T00:19:13;99392.66;;;5.88
74942;BMP280;63506;49.346;8.798;2024-03-25T00:21:55;99386.06;;;5.85
74942;BMP280;63506;49.346;8.798;2024-03-25T00:24:39;99402.03;;;5.94
74942;BMP280;63506;49.346;8.798;2024-03-25T00:27:21;99385.28;;;5.85
74942;BMP280;63506;49.346;8.798;2024-03-25T00:30:03;99386.91;;;5.89
74942;BMP280;63506;49.346;8.798;2024-03-25T00:32:47;99389.28;;;5.91
74942;BMP280;63506;49.346;8.798;2024-03-25T00:35:29;99387.03;;;5.93
74942;BMP280;63506;49.346;8.798;2024-03-25T00:38:11;99382.69;;;5.88
74942;BMP280;63506;49.346;8.798;2024-03-25T00:40:55;99388.66;;;5.82
74942;BMP280;63506;49.346;8.798;2024-03-25T00:43:37;99380.50;;;5.78
74942;BMP280;63506;49.346;8.798;2024-03-25T00:46:19;99385.88;;;5.78
74942;BMP280;63506;49.346;8.798;2024-03-25T00:49:00;99376.38;;;5.68
74942;BMP280;63506;49.346;8.798;2024-03-25T00:58:18;99389.44;;;5.54
74942;BMP280;63506;49.346;8.798;2024-03-25T01:01:02;99390.88;;;5.52
74942;BMP280;63506;49.346;8.798;2024-03-25T01:03:46;99397.19;;;5.44
74942;BMP280;63506;49.346;8.798;2024-03-25T01:06:33;99400.13;;;5.39
74942;BMP280;63506;49.346;8.798;2024-03-25T01:09:15;99399.56;;;5.33
74942;BMP280;63506;49.346;8.798;2024-03-25T01:12:02;99398.00;;;5.32
74942;BMP280;63506;49.346;8.798;2024-03-25T01:14:49;99390.28;;;5.30
74942;BMP280;63506;49.346;8.798;2024-03-25T01:17:35;99394.88;;;5.30
74942;BMP280;63506;49.346;8.798;2024-03-25T01:20:17;99398.16;;;5.23
74942;BMP280;63506;49.346;8.798;2024-03-25T01:22:58;99396.00;;;5.17
74942;BMP280;63506;49.346;8.798;2024-03-25T01:25:40;99397.13;;;5.16
74942;BMP280;63506;49.346;8.798;2024-03-25T01:28:26;99398.59;;;5.13
74942;BMP280;63506;49.346;8.798;2024-03-25T01:31:11;99395.72;;;5.06
74942;BMP280;63506;49.346;8.798;2024-03-25T01:33:53;99400.41;;;5.09
74942;BMP280;63506;49.346;8.798;2024-03-25T01:36:34;99394.25;;;5.09
74942;BMP280;63506;49.346;8.798;2024-03-25T01:39:18;99399.72;;;5.00
74942;BMP280;63506;49.346;8.798;2024-03-25T01:42:00;99394.25;;;4.96
74942;BMP280;63506;49.346;8.798;2024-03-25T01:44:41;99390.34;;;4.94
74942;BMP280;63506;49.346;8.798;2024-03-25T01:47:28;99396.06;;;4.92
74942;BMP280;63506;49.346;8.798;2024-03-25T01:50:12;99399.63;;;4.84
74942;BMP280;63506;49.346;8.798;2024-03-25T01:52:54;99397.59;;;4.81
74942;BMP280;63506;49.346;8.798;2024-03-25T01:55:37;99400.09;;;4.74
74942;BMP280;63506;49.346;8.798;2024-03-25T01:58:23;99404.75;;;4.77
74942;BMP280;63506;49.346;8.798;2024-03-25T02:01:11;99406.31;;;4.66
74942;BMP280;63506;49.346;8.798;2024-03-25T02:04:01;99406.69;;;4.52
74942;BMP280;63506;49.346;8.798;2024-03-25T02:06:48;99413.94;;;4.52
74942;BMP280;63506;49.346;8.798;2024-03-25T02:09:33;99412.88;;;4.44
74942;BMP280;63506;49.346;8.798;2024-03-25T02:12:20;99408.44;;;4.48
74942;BMP280;63506;49.346;8.798;2024-03-25T02:15:05;99413.94;;;4.52
74942;BMP280;63506;49.346;8.798;2024-03-25T02:17:49;99399.47;;;4.44
74942;BMP280;63506;49.346;8.798;2024-03-25T02:20:36;99403.50;;;4.38
74942;BMP280;63506;49.346;8.798;2024-03-25T02:23:20;99397.72;;;4.36
74942;BMP280;63506;49.346;8.798;2024-03-25T02:26:05;99405.28;;;4.46
74942;BMP280;63506;49.346;8.798;2024-03-25T02:28:46;99413.69;;;4.45
74942;BMP280;63506;49.346;8.798;2024-03-25T02:31:30;99407.53;;;4.44
74942;BMP280;63506;49.346;8.798;2024-03-25T02:34:14;99404.66;;;4.37
74942;BMP280;63506;49.346;8.798;2024-03-25T02:36:56;99406.88;;;4.35
74942;BMP280;63506;49.346;8.798;2024-03-25T02:39:38;99404.03;;;4.31
74942;BMP280;63506;49.346;8.798;2024-03-25T02:42:28;99401.13;;;4.24
74942;BMP280;63506;49.346;8.798;2024-03-25T02:45:13;99393.75;;;4.21
74942;BMP280;63506;49.346;8.798;2024-03-25T02:47:56;99401.13;;;4.24
74942;BMP280;63506;49.346;8.798;2024-03-25T02:50:38;99394.28;;;4.15
74942;BMP280;63506;49.346;8.798;2024-03-25T02:53:22;99401.53;;;4.14
74942;BMP280;63506;49.346;8.798;2024-03-25T02:56:06;99393.19;;;4.16
74942;BMP280;63506;49.346;8.798;2024-03-25T02:58:52;99397.50;;;4.08
74942;BMP280;63506;49.346;8.798;2024-03-25T03:01:36;99398.69;;;3.98
74942;BMP280;63506;49.346;8.798;2024-03-25T03:04:23;99400.69;;;3.89
74942;BMP280;63506;49.346;8.798;2024-03-25T03:07:06;99398.78;;;3.90
74942;BMP280;63506;49.346;8.798;2024-03-25T03:09:48;99398.00;;;3.89
74942;BMP280;63506;49.346;8.798;2024-03-25T03:12:34;99394.75;;;3.84
74942;BMP280;63506;49.346;8.798;2024-03-25T03:15:21;99390.03;;;3.81
74942;BMP280;63506;49.346;8.798;2024-03-25T03:18:07;99390.13;;;3.72
74942;BMP280;63506;49.346;8.798;2024-03-25T03:20:49;99383.59;;;3.61
74942;BMP280;63506;49.346;8.798;2024-03-25T03:23:31;99384.13;;;3.54
74942;BMP280;63506;49.346;8.798;2024-03-25T03:26:15;99381.63;;;3.49
74942;BMP280;63506;49.346;8.798;2024-03-25T03:29:02;99377.78;;;3.38
74942;BMP280;63506;49.346;8.798;2024-03-25T03:31:46;99389.59;;;3.37
74942;BMP280;63506;49.346;8.798;2024-03-25T03:34:30;99378.63;;;3.30
74942;BMP280;63506;49.346;8.798;2024-03-25T03:37:11;99387.69;;;3.17
74942;BMP280;63506;49.346;8.798;2024-03-25T03:39:55;99380.03;;;3.06
74942;BMP280;63506;49.346;8.798;2024-03-25T03:42:39;99385.09;;;2.99
74942;BMP280;63506;49.346;8.798;2024-03-25T03:45:21;99384.66;;;2.97
74942;BMP280;63506;49.346;8.798;2024-03-25T03:48:08;99386.78;;;2.83
74942;BMP280;63506;49.346;8.798;2024-03-25T03:50:51;99389.16;;;2.76
74942;BMP280;63506;49.346;8.798;2024-03-25T03:53:34;99387.41;;;2.80
74942;BMP280;63506;49.346;8.798;2024-03-25T03:56:18;99395.91;;;2.73
74942;BMP280;63506;49.346;8.798;2024-03-25T03:59:05;99403.09;;;2.61
74942;BMP280;63506;49.346;8.798;2024-03-25T04:01:49;99400.72;;;2.51
74942;BMP280;63506;49.346;8.798;2024-03-25T04:04:33;99393.34;;;2.39
74942;BMP280;63506;49.346;8.798;2024-03-25T04:07:15;99402.19;;;2.31
74942;BMP280;63506;49.346;8.798;2024-03-25T04:09:59;99402.22;;;2.22
74942;BMP280;63506;49.346;8.798;2024-03-25T04:12:43;99405.34;;;2.24
74942;BMP280;63506;49.346;8.798;2024-03-25T04:15:25;99398.91;;;2.25
74942;BMP280;63506;49.346;8.798;2024-03-25T04:18:12;99399.88;;;2.29
74942;BMP280;63506;49.346;8.798;2024-03-25T04:20:57;99404.59;;;2.15
74942;BMP280;63506;49.346;8.798;2024-03-25T04:23:39;99403.03;;;2.14
74942;BMP280;63506;49.346;8.798;2024-03-25T04:26:21;99402.09;;;2.10
74942;BMP280;63506;49.346;8.798;2024-03-25T04:29:02;99401.28;;;2.01
74942;BMP280;63506;49.346;8.798;2024-03-25T04:31:44;99396.41;;;2.03
74942;BMP280;63506;49.346;8.798;2024-03-25T04:34:29;99403.31;;;2.04
74942;BMP280;63506;49.346;8.798;2024-03-25T04:37:15;99395.47;;;2.07
74942;BMP280;63506;49.346;8.798;2024-03-25T04:39:58;99402.06;;;2.19
74942;BMP280;63506;49.346;8.798;2024-03-25T04:42:39;99394.06;;;2.19
74942;BMP280;63506;49.346;8.798;2024-03-25T04:45:23;99405.22;;;2.29
74942;BMP280;63506;49.346;8.798;2024-03-25T04:48:07;99401.69;;;2.37
74942;BMP280;63506;49.346;8.798;2024-03-25T04:50:55;99400.78;;;2.25
74942;BMP280;63506;49.346;8.798;2024-03-25T04:53:41;99408.03;;;2.15
74942;BMP280;63506;49.346;8.798;2024-03-25T04:56:23;99402.53;;;2.21
74942;BMP280;63506;49.346;8.798;2024-03-25T04:59:07;99405.53;;;2.19
74942;BMP280;63506;49.346;8.798;2024-03-25T05:01:52;99404.75;;;2.19
74942;BMP280;63506;49.346;8.798;2024-03-25T05:04:35;99408.81;;;2.16
74942;BMP280;63506;49.346;8.798;2024-03-25T05:07:22;99405.38;;;2.07
74942;BMP280;63506;49.346;8.798;2024-03-25T05:10:07;99410.72;;;2.07
74942;BMP280;63506;49.346;8.798;2024-03-25T05:12:53;99412.91;;;2.05
74942;BMP280;63506;49.346;8.798;2024-03-25T05:15:34;99420.78;;;2.10
74942;BMP280;63506;49.346;8.798;2024-03-25T05:18:16;99413.56;;;1.93
74942;BMP280;63506;49.346;8.798;2024-03-25T05:20:58;99422.50;;;1.97
74942;BMP280;63506;49.346;8.798;2024-03-25T05:23:40;99418.59;;;2.12
74942;BMP280;63506;49.346;8.798;2024-03-25T05:26:27;99416.38;;;2.05
74942;BMP280;63506;49.346;8.798;2024-03-25T05:29:12;99426.13;;;2.10
74942;BMP280;63506;49.346;8.798;2024-03-25T05:31:58;99434.94;;;2.10
74942;BMP280;63506;49.346;8.798;2024-03-25T05:34:42;99425.94;;;2.06
74942;BMP280;63506;49.346;8.798;2024-03-25T05:37:28;99431.28;;;2.06
74942;BMP280;63506;49.346;8.798;2024-03-25T05:40:11;99432.84;;;2.07
74942;BMP280;63506;49.346;8.798;2024-03-25T05:42:56;99430.03;;;2.04
74942;BMP280;63506;49.346;8.798;2024-03-25T05:45:37;99429.72;;;2.14
74942;BMP280;63506;49.346;8.798;2024-03-25T05:48:19;99428.28;;;2.25
74942;BMP280;63506;49.346;8.798;2024-03-25T05:51:04;99436.59;;;2.32
74942;BMP280;63506;49.346;8.798;2024-03-25T05:53:48;99432.34;;;2.40
74942;BMP280;63506;49.346;8.798;2024-03-25T05:56:35;99437.53;;;2.54
74942;BMP280;63506;49.346;8.798;2024-03-25T05:59:19;99426.50;;;2.64
74942;BMP280;63506;49.346;8.798;2024-03-25T06:02:01;99436.56;;;3.55
74942;BMP280;63506;49.346;8.798;2024-03-25T06:04:43;99440.69;;;4.40
74942;BMP280;63506;49.346;8.798;2024-03-25T06:07:29;99441.75;;;6.00
74942;BMP280;63506;49.346;8.798;2024-03-25T06:10:13;99443.41;;;8.12
74942;BMP280;63506;49.346;8.798;2024-03-25T06:12:55;99444.88;;;9.04
74942;BMP280;63506;49.346;8.798;2024-03-25T06:15:39;99441.88;;;10.13
74942;BMP280;63506;49.346;8.798;2024-03-25T06:18:23;99444.13;;;11.10
74942;BMP280;63506;49.346;8.798;2024-03-25T06:21:05;99434.78;;;11.04
74942;BMP280;63506;49.346;8.798;2024-03-25T06:23:48;99443.53;;;9.51
74942;BMP280;63506;49.346;8.798;2024-03-25T06:26:32;99443.63;;;8.98
74942;BMP280;63506;49.346;8.798;2024-03-25T06:29:17;99455.53;;;9.87
74942;BMP280;63506;49.346;8.798;2024-03-25T06:32:02;99447.97;;;9.02
74942;BMP280;63506;49.346;8.798;2024-03-25T06:34:58;99456.53;;;10.56
74942;BMP280;63506;49.346;8.798;2024-03-25T06:37:40;99445.56;;;12.54
74942;BMP280;63506;49.346;8.798;2024-03-25T06:40:26;99443.75;;;13.35
74942;BMP280;63506;49.346;8.798;2024-03-25T06:43:10;99444.41;;;14.12
74942;BMP280;63506;49.346;8.798;2024-03-25T06:45:52;99455.50;;;14.32
74942;BMP280;63506;49.346;8.798;2024-03-25T06:48:36;99455.09;;;14.71
74942;BMP280;63506;49.346;8.798;2024-03-25T06:51:20;99468.28;;;15.44
74942;BMP280;63506;49.346;8.798;2024-03-25T06:54:04;99461.50;;;14.13
74942;BMP280;63506;49.346;8.798;2024-03-25T06:56:50;99467.28;;;13.66
74942;BMP280;63506;49.346;8.798;2024-03-25T06:59:32;99470.69;;;13.81
74942;BMP280;63506;49.346;8.798;2024-03-25T07:02:16;99469.63;;;14.20
74942;BMP280;63506;49.346;8.798;2024-03-25T07:05:03;99466.03;;;15.05
74942;BMP280;63506;49.346;8.798;2024-03-25T07:07:47;99469.66;;;15.55
74942;BMP280;63506;49.346;8.798;2024-03-25T07:10:29;99462.06;;;13.24
74942;BMP280;63506;49.346;8.798;2024-03-25T07:13:14;99467.28;;;12.51
74942;BMP280;63506;49.346;8.798;2024-03-25T07:15:58;99468.00;;;12.80
74942;BMP280;63506;49.346;8.798;2024-03-25T07:18:42;99463.38;;;11.81
74942;BMP280;63506;49.346;8.798;2024-03-25T07:21:26;99459.94;;;12.34
74942;BMP280;63506;49.346;8.798;2024-03-25T07:24:10;99462.56;;;12.83
74942;BMP280;63506;49.346;8.798;2024-03-25T07:26:54;99461.78;;;12.93
74942;BMP280;63506;49.346;8.798;2024-03-25T07:29:36;99458.72;;;12.74
74942;BMP280;63506;49.346;8.798;2024-03-25T07:32:20;99460.97;;;12.96
74942;BMP280;63506;49.346;8.798;2024-03-25T07:35:02;99463.03;;;12.25
74942;BMP280;63506;49.346;8.798;2024-03-25T07:37:48;99452.13;;;12.07
74942;BMP280;63506;49.346;8.798;2024-03-25T07:40:30;99453.66;;;11.76
74942;BMP280;63506;49.346;8.798;2024-03-25T07:43:14;99453.69;;;11.91
74942;BMP280;63506;49.346;8.798;2024-03-25T07:45:56;99449.06;;;12.34
74942;BMP280;63506;49.346;8.798;2024-03-25T07:48:37;99449.78;;;12.73
74942;BMP280;63506;49.346;8.798;2024-03-25T07:51:20;99448.09;;;13.11
74942;BMP280;63506;49.346;8.798;2024-03-25T07:54:04;99451.00;;;13.56
74942;BMP280;63506;49.346;8.798;2024-03-25T07:56:50;99450.69;;;13.43
74942;BMP280;63506;49.346;8.798;2024-03-25T07:59:35;99449.44;;;12.50
74942;BMP280;63506;49.346;8.798;2024-03-25T08:02:19;99450.22;;;12.15
74942;BMP280;63506;49.346;8.798;2024-03-25T08:05:04;99453.22;;;12.91
74942;BMP280;63506;49.346;8.798;2024-03-25T08:07:46;99444.53;;;13.32
74942;BMP280;63506;49.346;8.798;2024-03-25T08:10:30;99449.06;;;14.12
74942;BMP280;63506;49.346;8.798;2024-03-25T08:13:14;99446.22;;;14.26
74942;BMP280;63506;49.346;8.798;2024-03-25T08:15:58;99445.75;;;14.34
74942;BMP280;63506;49.346;8.798;2024-03-25T08:18:40;99451.19;;;13.90
74942;BMP280;63506;49.346;8.798;2024-03-25T08:21:25;99438.81;;;14.67
74942;BMP280;63506;49.346;8.798;2024-03-25T08:24:09;99436.13;;;14.64
74942;BMP280;63506;49.346;8.798;2024-03-25T08:26:56;99436.31;;;14.46
74942;BMP280;63506;49.346;8.798;2024-03-25T08:29:37;99436.28;;;14.83
74942;BMP280;63506;49.346;8.798;2024-03-25T08:32:19;99438.72;;;15.08
74942;BMP280;63506;49.346;8.798;2024-03-25T08:35:01;99436.66;;;14.86
74942;BMP280;63506;49.346;8.798;2024-03-25T08:37:46;99428.19;;;15.07
74942;BMP280;63506;49.346;8.798;2024-03-25T08:40:28;99420.88;;;15.57
74942;BMP280;63506;49.346;8.798;2024-03-25T08:43:12;99423.50;;;15.65
74942;BMP280;63506;49.346;8.798;2024-03-25T08:45:54;99428.31;;;15.30
74942;BMP280;63506;49.346;8.798;2024-03-25T08:48:40;99427.66;;;15.49
74942;BMP280;63506;49.346;8.798;2024-03-25T08:51:22;99430.31;;;15.23
74942;BMP280;63506;49.346;8.798;2024-03-25T08:54:04;99433.81;;;14.62
74942;BMP280;63506;49.346;8.798;2024-03-25T08:56:50;99435.63;;;13.28
74942;BMP280;63506;49.346;8.798;2024-03-25T08:59:39;99436.16;;;11.53
74942;BMP280;63506;49.346;8.798;2024-03-25T09:02:23;99438.88;;;11.53
74942;BMP280;63506;49.346;8.798;2024-03-25T09:05:06;99429.19;;;12.86
74942;BMP280;63506;49.346;8.798;2024-03-25T09:07:49;99428.56;;;13.96
74942;BMP280;63506;49.346;8.798;2024-03-25T09:10:37;99425.00;;;14.03
74942;BMP280;63506;49.346;8.798;2024-03-25T09:13:36;99425.34;;;13.60
74942;BMP280;63506;49.346;8.798;2024-03-25T09:16:23;99418.50;;;13.31
74942;BMP280;63506;49.346;8.798;2024-03-25T09:19:04;99404.94;;;13.24
74942;BMP280;63506;49.346;8.798;2024-03-25T09:21:48;99403.16;;;12.85
74942;BMP280;63506;49.346;8.798;2024-03-25T09:24:30;99404.44;;;11.92
74942;BMP280;63506;49.346;8.798;2024-03-25T09:27:14;99394.34;;;11.78
74942;BMP280;63506;49.346;8.798;2024-03-25T09:29:56;99401.72;;;12.38
74942;BMP280;63506;49.346;8.798;2024-03-25T09:32:45;99396.69;;;12.40
74942;BMP280;63506;49.346;8.798;2024-03-25T09:35:27;99380.56;;;12.99
74942;BMP280;63506;49.346;8.798;2024-03-25T09:38:12;99375.03;;;13.17
74942;BMP280;63506;49.346;8.798;2024-03-25T09:40:57;99376.50;;;13.36
74942;BMP280;63506;49.346;8.798;2024-03-25T09:43:43;99373.25;;;14.06
74942;BMP280;63506;49.346;8.798;2024-03-25T09:46:29;99365.47;;;14.09
74942;BMP280;63506;49.346;8.798;2024-03-25T09:49:19;99361.44;;;14.20
74942;BMP280;63506;49.346;8.798;2024-03-25T09:52:01;99355.16;;;13.82
74942;BMP280;63506;49.346;8.798;2024-03-25T09:54:43;99349.25;;;13.94
74942;BMP280;63506;49.346;8.798;2024-03-25T09:57:28;99342.72;;;14.26
74942;BMP280;63506;49.346;8.798;2024-03-25T10:00:13;99343.09;;;13.87
74942;BMP280;63506;49.346;8.798;2024-03-25T10:03:00;99347.38;;;14.25
74942;BMP280;63506;49.346;8.798;2024-03-25T10:05:44;99338.31;;;13.53
74942;BMP280;63506;49.346;8.798;2024-03-25T10:08:33;99335.28;;;13.89
74942;BMP280;63506;49.346;8.798;2024-03-25T10:11:19;99334.91;;;13.87
74942;BMP280;63506;49.346;8.798;2024-03-25T10:14:01;99327.59;;;14.21
74942;BMP280;63506;49.346;8.798;2024-03-25T10:16:45;99322.78;;;14.32
74942;BMP280;63506;49.346;8.798;2024-03-25T10:19:27;99315.97;;;14.81
74942;BMP280;63506;49.346;8.798;2024-03-25T10:22:13;99307.25;;;14.63
74942;BMP280;63506;49.346;8.798;2024-03-25T10:24:59;99303.75;;;14.63
74942;BMP280;63506;49.346;8.798;2024-03-25T10:27:52;99316.94;;;14.34
74942;BMP280;63506;49.346;8.798;2024-03-25T10:30:35;99302.88;;;14.69
74942;BMP280;63506;49.346;8.798;2024-03-25T10:33:17;99301.34;;;14.95
74942;BMP280;63506;49.346;8.798;2024-03-25T10:36:03;99300.19;;;14.66
74942;BMP280;63506;49.346;8.798;2024-03-25T10:39:01;99301.81;;;14.90
74942;BMP280;63506;49.346;8.798;2024-03-25T10:41:46;99303.91;;;15.06
74942;BMP280;63506;49.346;8.798;2024-03-25T10:44:29;99297.16;;;14.91
74942;BMP280;63506;49.346;8.798;2024-03-25T10:47:19;99291.44;;;15.08
74942;BMP280;63506;49.346;8.798;2024-03-25T10:50:08;99284.88;;;15.02
74942;BMP280;63506;49.346;8.798;2024-03-25T10:52:51;99284.53;;;15.27
74942;BMP280;63506;49.346;8.798;2024-03-25T10:55:37;99275.91;;;15.29
74942;BMP280;63506;49.346;8.798;2024-03-25T10:58:21;99263.72;;;14.83
74942;BMP280;63506;49.346;8.798;2024-03-25T11:01:07;99273.09;;;13.84
74942;BMP280;63506;49.346;8.798;2024-03-25T11:04:01;99261.19;;;14.42
74942;BMP280;63506;49.346;8.798;2024-03-25T11:06:49;99258.75;;;15.05
74942;BMP280;63506;49.346;8.798;2024-03-25T11:09:30;99260.81;;;15.20
74942;BMP280;63506;49.346;8.798;2024-03-25T11:12:14;99264.53;;;15.10
74942;BMP280;63506;49.346;8.798;2024-03-25T11:15:01;99249.06;;;15.00
74942;BMP280;63506;49.346;8.798;2024-03-25T11:17:50;99249.06;;;15.00
74942;BMP280;63506;49.346;8.798;2024-03-25T11:20:34;99233.00;;;15.29
74942;BMP280;63506;49.346;8.798;2024-03-25T11:23:18;99233.97;;;15.42
74942;BMP280;63506;49.346;8.798;2024-03-25T11:26:02;99225.69;;;15.26
74942;BMP280;63506;49.346;8.798;2024-03-25T11:28:49;99219.44;;;15.69
74942;BMP280;63506;49.346;8.798;2024-03-25T11:31:33;99214.78;;;15.46
74942;BMP280;63506;49.346;8.798;2024-03-25T11:34:17;99202.00;;;15.19
74942;BMP280;63506;49.346;8.798;2024-03-25T11:36:58;99200.81;;;14.97
74942;BMP280;63506;49.346;8.798;2024-03-25T11:39:42;99189.34;;;14.82
74942;BMP280;63506;49.346;8.798;2024-03-25T11:42:53;99196.75;;;15.09
74942;BMP280;63506;49.346;8.798;2024-03-25T11:45:40;99195.19;;;15.08
74942;BMP280;63506;49.346;8.798;2024-03-25T11:48:21;99191.50;;;15.18
74942;BMP280;63506;49.346;8.798;2024-03-25T11:51:03;99179.75;;;14.98
74942;BMP280;63506;49.346;8.798;2024-03-25T11:53:45;99171.91;;;15.00
74942;BMP280;63506;49.346;8.798;2024-03-25T11:56:29;99171.69;;;15.14
74942;BMP280;63506;49.346;8.798;2024-03-25T11:59:18;99169.72;;;15.57
74942;BMP280;63506;49.346;8.798;2024-03-25T12:02:08;99160.75;;;15.57
74942;BMP280;63506;49.346;8.798;2024-03-25T12:04:50;99172.31;;;15.45
74942;BMP280;63506;49.346;8.798;2024-03-25T12:07:34;99161.38;;;14.52
74942;BMP280;63506;49.346;8.798;2024-03-25T12:10:19;99157.88;;;15.25
74942;BMP280;63506;49.346;8.798;2024-03-25T12:13:19;99158.81;;;15.57
74942;BMP280;63506;49.346;8.798;2024-03-25T12:16:05;99148.19;;;15.43
74942;BMP280;63506;49.346;8.798;2024-03-25T12:18:49;99145.03;;;15.65
74942;BMP280;63506;49.346;8.798;2024-03-25T12:21:35;99137.69;;;15.42
74942;BMP280;63506;49.346;8.798;2024-03-25T12:24:18;99132.84;;;15.30
74942;BMP280;63506;49.346;8.798;2024-03-25T12:27:02;99134.69;;;14.90
74942;BMP280;63506;49.346;8.798;2024-03-25T12:29:44;99134.69;;;15.13
74942;BMP280;63506;49.346;8.798;2024-03-25T12:32:38;99125.00;;;15.32
74942;BMP280;63506;49.346;8.798;2024-03-25T12:35:26;99117.38;;;15.00
74942;BMP280;63506;49.346;8.798;2024-03-25T12:38:07;99114.34;;;14.71
74942;BMP280;63506;49.346;8.798;2024-03-25T12:40:49;99101.84;;;14.50
74942;BMP280;63506;49.346;8.798;2024-03-25T12:43:41;99101.00;;;13.99
74942;BMP280;63506;49.346;8.798;2024-03-25T12:46:25;99092.69;;;14.37
74942;BMP280;63506;49.346;8.798;2024-03-25T12:49:09;99095.13;;;14.81
74942;BMP280;63506;49.346;8.798;2024-03-25T12:51:53;99092.22;;;14.92
74942;BMP280;63506;49.346;8.798;2024-03-25T12:54:35;99082.41;;;14.71
74942;BMP280;63506;49.346;8.798;2024-03-25T12:57:20;99071.91;;;14.73
74942;BMP280;63506;49.346;8.798;2024-03-25T13:00:05;99065.19;;;14.78
74942;BMP280;63506;49.346;8.798;2024-03-25T13:02:48;99062.81;;;14.80
74942;BMP280;63506;49.346;8.798;2024-03-25T13:05:30;99050.56;;;14.88
74942;BMP280;63506;49.346;8.798;2024-03-25T13:08:15;99043.47;;;14.94
74942;BMP280;63506;49.346;8.798;2024-03-25T13:10:57;99031.66;;;14.81
74942;BMP280;63506;49.346;8.798;2024-03-25T13:13:39;99021.59;;;14.04
74942;BMP280;63506;49.346;8.798;2024-03-25T13:16:20;99020.03;;;14.30
74942;BMP280;63506;49.346;8.798;2024-03-25T13:19:02;99019.91;;;14.37
74942;BMP280;63506;49.346;8.798;2024-03-25T13:21:44;99012.53;;;14.11
74942;BMP280;63506;49.346;8.798;2024-03-25T13:24:29;99000.28;;;13.73
74942;BMP280;63506;49.346;8.798;2024-03-25T13:27:11;98995.38;;;13.91
74942;BMP280;63506;49.346;8.798;2024-03-25T14:01:12;98958.91;;;13.27
74942;BMP280;63506;49.346;8.798;2024-03-25T14:03:54;98949.44;;;13.39
74942;BMP280;63506;49.346;8.798;2024-03-25T14:06:36;98955.81;;;13.25
74942;BMP280;63506;49.346;8.798;2024-03-25T14:09:26;98945.78;;;13.19
74942;BMP280;63506;49.346;8.798;2024-03-25T14:12:08;98943.00;;;13.22
74942;BMP280;63506;49.346;8.798;2024-03-25T14:14:50;98938.78;;;13.21
74942;BMP280;63506;49.346;8.798;2024-03-25T14:17:39;98944.97;;;13.52
74942;BMP280;63506;49.346;8.798;2024-03-25T14:20:21;98936.22;;;13.07
74942;BMP280;63506;49.346;8.798;2024-03-25T14:23:02;98925.53;;;12.89
74942;BMP280;63506;49.346;8.798;2024-03-25T14:25:47;98910.25;;;13.03
74942;BMP280;63506;49.346;8.798;2024-03-25T15:17:27;98819.53;;;12.89
74942;BMP280;63506;49.346;8.798;2024-03-25T16:11:17;98755.53;;;12.58
74942;BMP280;63506;49.346;8.798;2024-03-25T16:40:11;98711.19;;;12.04
74942;BMP280;63506;49.346;8.798;2024-03-25T16:42:53;98710.09;;;11.94
74942;BMP280;63506;49.346;8.798;2024-03-25T16:45:35;98726.31;;;12.01
74942;BMP280;63506;49.346;8.798;2024-03-25T16:48:17;98704.28;;;11.92
74942;BMP280;63506;49.346;8.798;2024-03-25T16:50:59;98710.50;;;11.93
74942;BMP280;63506;49.346;8.798;2024-03-25T16:53:40;98705.84;;;11.97
74942;BMP280;63506;49.346;8.798;2024-03-25T16:56:25;98699.38;;;11.83
74942;BMP280;63506;49.346;8.798;2024-03-25T16:59:07;98702.50;;;11.78
74942;BMP280;63506;49.346;8.798;2024-03-25T17:01:49;98693.59;;;11.81
74942;BMP280;63506;49.346;8.798;2024-03-25T17:04:32;98694.84;;;11.70
74942;BMP280;63506;49.346;8.798;2024-03-25T17:07:14;98699.00;;;11.78
74942;BMP280;63506;49.346;8.798;2024-03-25T17:09:57;98697.25;;;11.64
74942;BMP280;63506;49.346;8.798;2024-03-25T17:13:01;98694.69;;;11.43
74942;BMP280;63506;49.346;8.798;2024-03-25T17:15:46;98694.38;;;11.37
74942;BMP280;63506;49.346;8.798;2024-03-25T17:18:28;98684.81;;;11.22
74942;BMP280;63506;49.346;8.798;2024-03-25T17:21:10;98688.41;;;11.08
74942;BMP280;63506;49.346;8.798;2024-03-25T17:23:51;98688.09;;;10.99
74942;BMP280;63506;49.346;8.798;2024-03-25T17:26:33;98671.19;;;10.77
74942;BMP280;63506;49.346;8.798;2024-03-25T17:29:18;98681.69;;;10.68
74942;BMP280;63506;49.346;8.798;2024-03-25T17:32:00;98670.19;;;10.47
74942;BMP280;63506;49.346;8.798;2024-03-25T17:34:42;98674.47;;;10.37
74942;BMP280;63506;49.346;8.798;2024-03-25T17:46:14;98672.75;;;9.59
74942;BMP280;63506;49.346;8.798;2024-03-25T17:48:56;98662.00;;;9.38
74942;BMP280;63506;49.346;8.798;2024-03-25T17:51:38;98673.53;;;9.14
74942;BMP280;63506;49.346;8.798;2024-03-25T17:54:20;98674.63;;;8.81
74942;BMP280;63506;49.346;8.798;2024-03-25T17:57:02;98670.75;;;8.67
74942;BMP280;63506;49.346;8.798;2024-03-25T17:59:44;98665.25;;;8.46
74942;BMP280;63506;49.346;8.798;2024-03-25T18:02:28;98680.69;;;8.49
74942;BMP280;63506;49.346;8.798;2024-03-25T18:05:10;98661.66;;;8.14
74942;BMP280;63506;49.346;8.798;2024-03-25T18:07:52;98666.22;;;7.99
74942;BMP280;63506;49.346;8.798;2024-03-25T18:10:34;98667.97;;;7.74
74942;BMP280;63506;49.346;8.798;2024-03-25T18:13:17;98655.91;;;7.53
74942;BMP280;63506;49.346;8.798;2024-03-25T18:15:59;98655.47;;;7.48
74942;BMP280;63506;49.346;8.798;2024-03-25T18:18:44;98665.00;;;7.38
74942;BMP280;63506;49.346;8.798;2024-03-25T18:21:28;98656.88;;;7.31
74942;BMP280;63506;49.346;8.798;2024-03-25T18:24:12;98657.47;;;7.14
74942;BMP280;63506;49.346;8.798;2024-03-25T18:49:28;98616.13;;;6.55
74942;BMP280;63506;49.346;8.798;2024-03-25T18:52:12;98612.56;;;6.44
74942;BMP280;63506;49.346;8.798;2024-03-25T18:54:53;98629.06;;;6.46
74942;BMP280;63506;49.346;8.798;2024-03-25T18:57:35;98616.81;;;6.48
74942;BMP280;63506;49.346;8.798;2024-03-25T19:00:17;98622.19;;;6.82
74942;BMP280;63506;49.346;8.798;2024-03-25T19:02:59;98619.16;;;6.90
74942;BMP280;63506;49.346;8.798;2024-03-25T19:05:45;98619.63;;;6.96